sensor_id;sensor_type;location;lat;lon;timestamp;temperature;humidity
9201;DHT22;4635;48.686;9.008;2023-02-27T00:00:25;-3.20;1.00
9201;DHT22;4635;48.686;9.008;2023-02-27T00:03:03;-3.20;1.00
9201;DHT22;4635;48.686;9.008;2023-02-27T00:05:34;-3.30;1.00
9201;DHT22;4635;48.686;9.008;2023-02-27T00:08:06;-3.30;1.00
9201;DHT22;4635;48.686;9.008;2023-02-27T00:10:43;-3.30;1.00
9201;DHT22;4635;48.686;9.008;2023-02-27T00:13:22;-3.30;99.90
9201;DHT22;4635;48.686;9.008;2023-02-27T00:15:56;-3.30;23.30
9201;DHT22;4635;48.686;9.008;2023-02-27T00:18:32;-3.30;1.00
9201;DHT22;4635;48.686;9.008;2023-02-27T00:21:09;-3.30;99.90
9201;DHT22;4635;48.686;9.008;2023-02-27T00:23:43;-3.30;1.00
9201;DHT22;4635;48.686;9.008;2023-02-27T00:26:22;-3.30;99.90
9201;DHT22;4635;48.686;9.008;2023-02-27T00:28:55;-3.30;99.90
9201;DHT22;4635;48.686;9.008;2023-02-27T00:31:31;-3.30;1.00
9201;DHT22;4635;48.686;9.008;2023-02-27T00:34:12;-3.40;12.50
9201;DHT22;4635;48.686;9.008;2023-02-27T00:36:45;-3.40;99.90
9201;DHT22;4635;48.686;9.008;2023-02-27T00:39:19;-3.40;1.00
9201;DHT22;4635;48.686;9.008;2023-02-27T00:41:52;-3.40;1.00
9201;DHT22;4635;48.686;9.008;2023-02-27T00:44:31;-3.40;1.00
9201;DHT22;4635;48.686;9.008;2023-02-27T00:47:06;-3.30;1.00
9201;DHT22;4635;48.686;9.008;2023-02-27T00:49:44;-3.40;1.00
9201;DHT22;4635;48.686;9.008;2023-02-27T00:52:20;-3.40;1.00
9201;DHT22;4635;48.686;9.008;2023-02-27T00:54:54;-3.40;1.00
9201;DHT22;4635;48.686;9.008;2023-02-27T00:57:30;-3.40;1.00
9201;DHT22;4635;48.686;9.008;2023-02-27T01:00:11;-3.40;99.90
9201;DHT22;4635;48.686;9.008;2023-02-27T01:02:47;-3.40;1.00
9201;DHT22;4635;48.686;9.008;2023-02-27T01:05:27;-3.40;1.00
9201;DHT22;4635;48.686;9.008;2023-02-27T01:08:11;-3.40;1.00
9201;DHT22;4635;48.686;9.008;2023-02-27T01:10:45;-3.40;1.00
9201;DHT22;4635;48.686;9.008;2023-02-27T01:13:18;-3.30;99.90
9201;DHT22;4635;48.686;9.008;2023-02-27T01:15:52;-3.30;99.90
9201;DHT22;4635;48.686;9.008;2023-02-27T01:18:28;-3.40;1.00
9201;DHT22;4635;48.686;9.008;2023-02-27T01:21:20;-3.40;1.00
9201;DHT22;4635;48.686;9.008;2023-02-27T01:23:53;-3.40;99.90
9201;DHT22;4635;48.686;9.008;2023-02-27T01:26:28;-3.40;1.00
9201;DHT22;4635;48.686;9.008;2023-02-27T01:29:01;-3.40;99.90
9201;DHT22;4635;48.686;9.008;2023-02-27T01:31:33;-3.40;1.00
9201;DHT22;4635;48.686;9.008;2023-02-27T01:34:08;-3.40;99.90
9201;DHT22;4635;48.686;9.008;2023-02-27T01:36:56;-3.40;1.00
9201;DHT22;4635;48.686;9.008;2023-02-27T01:39:36;-3.40;90.80
9201;DHT22;4635;48.686;9.008;2023-02-27T01:42:23;-3.50;99.90
9201;DHT22;4635;48.686;9.008;2023-02-27T01:45:28;-3.50;1.00
9201;DHT22;4635;48.686;9.008;2023-02-27T01:48:09;-3.50;99.90
9201;DHT22;4635;48.686;9.008;2023-02-27T01:50:48;-3.50;99.90
9201;DHT22;4635;48.686;9.008;2023-02-27T01:53:27;-3.50;1.00
9201;DHT22;4635;48.686;9.008;2023-02-27T01:56:05;-3.50;1.00
9201;DHT22;4635;48.686;9.008;2023-02-27T01:58:39;-3.50;1.00
9201;DHT22;4635;48.686;9.008;2023-02-27T02:01:12;-3.50;99.90
9201;DHT22;4635;48.686;9.008;2023-02-27T02:03:49;-3.50;1.00
9201;DHT22;4635;48.686;9.008;2023-02-27T02:06:23;-3.50;1.00
9201;DHT22;4635;48.686;9.008;2023-02-27T02:09:00;-3.50;99.90
9201;DHT22;4635;48.686;9.008;2023-02-27T02:11:36;-3.50;1.00
9201;DHT22;4635;48.686;9.008;2023-02-27T02:14:10;-3.50;1.00
9201;DHT22;4635;48.686;9.008;2023-02-27T02:16:58;-3.50;1.00
9201;DHT22;4635;48.686;9.008;2023-02-27T02:23:22;-3.50;1.00
9201;DHT22;4635;48.686;9.008;2023-02-27T02:26:40;-3.50;1.00
9201;DHT22;4635;48.686;9.008;2023-02-27T02:32:55;-3.50;1.00
9201;DHT22;4635;48.686;9.008;2023-02-27T02:36:21;-3.50;99.90
9201;DHT22;4635;48.686;9.008;2023-02-27T02:42:17;-3.50;99.90
9201;DHT22;4635;48.686;9.008;2023-02-27T02:44:59;-3.60;1.00
9201;DHT22;4635;48.686;9.008;2023-02-27T02:47:39;-3.60;99.90
9201;DHT22;4635;48.686;9.008;2023-02-27T02:50:21;-3.60;1.00
9201;DHT22;4635;48.686;9.008;2023-02-27T02:53:02;-3.60;99.90
9201;DHT22;4635;48.686;9.008;2023-02-27T02:55:46;-3.50;1.00
9201;DHT22;4635;48.686;9.008;2023-02-27T02:58:28;-3.60;99.90
9201;DHT22;4635;48.686;9.008;2023-02-27T03:01:10;-3.60;99.90
9201;DHT22;4635;48.686;9.008;2023-02-27T03:03:46;-3.60;1.00
9201;DHT22;4635;48.686;9.008;2023-02-27T03:06:31;-3.60;1.00
9201;DHT22;4635;48.686;9.008;2023-02-27T03:09:07;-3.60;99.90
9201;DHT22;4635;48.686;9.008;2023-02-27T03:11:50;-3.60;1.00
9201;DHT22;4635;48.686;9.008;2023-02-27T03:14:28;-3.60;1.00
9201;DHT22;4635;48.686;9.008;2023-02-27T03:17:08;-3.50;1.00
9201;DHT22;4635;48.686;9.008;2023-02-27T03:19:48;-3.50;99.90
9201;DHT22;4635;48.686;9.008;2023-02-27T03:22:26;-3.50;1.00
9201;DHT22;4635;48.686;9.008;2023-02-27T03:25:05;-3.60;1.00
9201;DHT22;4635;48.686;9.008;2023-02-27T03:27:44;-3.60;1.00
9201;DHT22;4635;48.686;9.008;2023-02-27T03:30:26;-3.60;23.90
9201;DHT22;4635;48.686;9.008;2023-02-27T03:33:04;-3.60;47.00
9201;DHT22;4635;48.686;9.008;2023-02-27T03:35:44;-3.60;99.90
9201;DHT22;4635;48.686;9.008;2023-02-27T03:38:23;-3.60;99.90
9201;DHT22;4635;48.686;9.008;2023-02-27T03:41:07;-3.50;1.00
9201;DHT22;4635;48.686;9.008;2023-02-27T03:43:48;-3.50;1.00
9201;DHT22;4635;48.686;9.008;2023-02-27T03:46:27;-3.50;1.00
9201;DHT22;4635;48.686;9.008;2023-02-27T03:49:06;-3.50;1.00
9201;DHT22;4635;48.686;9.008;2023-02-27T03:51:42;-3.60;56.40
9201;DHT22;4635;48.686;9.008;2023-02-27T03:54:17;-3.50;1.00
9201;DHT22;4635;48.686;9.008;2023-02-27T03:56:56;-3.50;2.10
9201;DHT22;4635;48.686;9.008;2023-02-27T03:59:36;-3.50;60.80
9201;DHT22;4635;48.686;9.008;2023-02-27T04:02:18;-3.50;99.90
9201;DHT22;4635;48.686;9.008;2023-02-27T04:04:53;-3.60;99.90
9201;DHT22;4635;48.686;9.008;2023-02-27T04:07:34;-3.60;99.90
9201;DHT22;4635;48.686;9.008;2023-02-27T04:10:34;-3.60;99.90
9201;DHT22;4635;48.686;9.008;2023-02-27T04:13:39;-3.50;1.00
9201;DHT22;4635;48.686;9.008;2023-02-27T04:16:38;-3.60;1.00
9201;DHT22;4635;48.686;9.008;2023-02-27T04:19:24;-3.60;1.00
9201;DHT22;4635;48.686;9.008;2023-02-27T04:22:15;-3.60;1.00
9201;DHT22;4635;48.686;9.008;2023-02-27T04:25:14;-3.60;1.00
9201;DHT22;4635;48.686;9.008;2023-02-27T04:27:57;-3.60;1.00
9201;DHT22;4635;48.686;9.008;2023-02-27T04:30:52;-3.60;1.00
9201;DHT22;4635;48.686;9.008;2023-02-27T04:33:44;-3.60;1.00
9201;DHT22;4635;48.686;9.008;2023-02-27T04:36:25;-3.60;1.00
9201;DHT22;4635;48.686;9.008;2023-02-27T04:39:03;-3.60;99.90
9201;DHT22;4635;48.686;9.008;2023-02-27T04:41:39;-3.60;99.90
9201;DHT22;4635;48.686;9.008;2023-02-27T04:44:18;-3.60;99.90
9201;DHT22;4635;48.686;9.008;2023-02-27T04:46:52;-3.60;1.00
9201;DHT22;4635;48.686;9.008;2023-02-27T04:49:33;-3.60;99.90
9201;DHT22;4635;48.686;9.008;2023-02-27T04:52:09;-3.60;99.90
9201;DHT22;4635;48.686;9.008;2023-02-27T04:54:48;-3.60;99.90
9201;DHT22;4635;48.686;9.008;2023-02-27T04:57:27;-3.60;1.00
9201;DHT22;4635;48.686;9.008;2023-02-27T05:00:04;-3.60;1.00
9201;DHT22;4635;48.686;9.008;2023-02-27T05:02:41;-3.70;99.90
9201;DHT22;4635;48.686;9.008;2023-02-27T05:05:25;-3.70;99.90
9201;DHT22;4635;48.686;9.008;2023-02-27T05:08:02;-3.70;99.90
9201;DHT22;4635;48.686;9.008;2023-02-27T05:10:39;-3.60;99.90
9201;DHT22;4635;48.686;9.008;2023-02-27T05:13:14;-3.60;99.90
9201;DHT22;4635;48.686;9.008;2023-02-27T05:15:51;-3.60;99.90
9201;DHT22;4635;48.686;9.008;2023-02-27T05:18:26;-3.70;99.90
9201;DHT22;4635;48.686;9.008;2023-02-27T05:21:13;-3.70;1.00
9201;DHT22;4635;48.686;9.008;2023-02-27T05:24:05;-3.70;1.00
9201;DHT22;4635;48.686;9.008;2023-02-27T05:26:57;-3.70;1.00
9201;DHT22;4635;48.686;9.008;2023-02-27T05:29:35;-3.70;1.00
9201;DHT22;4635;48.686;9.008;2023-02-27T05:32:26;-3.70;1.00
9201;DHT22;4635;48.686;9.008;2023-02-27T05:35:09;-3.70;1.00
9201;DHT22;4635;48.686;9.008;2023-02-27T05:37:52;-3.70;1.00
9201;DHT22;4635;48.686;9.008;2023-02-27T05:40:31;-3.80;1.00
9201;DHT22;4635;48.686;9.008;2023-02-27T05:43:07;-3.80;1.00
9201;DHT22;4635;48.686;9.008;2023-02-27T05:45:45;-3.80;1.00
9201;DHT22;4635;48.686;9.008;2023-02-27T05:48:26;-3.80;99.90
9201;DHT22;4635;48.686;9.008;2023-02-27T05:51:07;-3.90;99.90
9201;DHT22;4635;48.686;9.008;2023-02-27T05:53:53;-3.90;1.00
9201;DHT22;4635;48.686;9.008;2023-02-27T05:56:30;-3.90;1.00
9201;DHT22;4635;48.686;9.008;2023-02-27T05:59:09;-4.00;1.00
9201;DHT22;4635;48.686;9.008;2023-02-27T06:01:44;-4.00;1.00
9201;DHT22;4635;48.686;9.008;2023-02-27T06:04:25;-4.00;1.00
9201;DHT22;4635;48.686;9.008;2023-02-27T06:07:02;-3.40;99.90
9201;DHT22;4635;48.686;9.008;2023-02-27T06:16:38;-4.00;1.00
9201;DHT22;4635;48.686;9.008;2023-02-27T06:19:45;-4.00;1.00
9201;DHT22;4635;48.686;9.008;2023-02-27T06:25:11;-4.00;1.00
9201;DHT22;4635;48.686;9.008;2023-02-27T06:28:01;-4.00;1.00
9201;DHT22;4635;48.686;9.008;2023-02-27T06:31:18;-4.00;1.00
9201;DHT22;4635;48.686;9.008;2023-02-27T06:34:12;-4.00;1.00
9201;DHT22;4635;48.686;9.008;2023-02-27T06:36:57;-4.00;1.00
9201;DHT22;4635;48.686;9.008;2023-02-27T06:39:31;-4.00;1.00
9201;DHT22;4635;48.686;9.008;2023-02-27T06:42:27;-4.00;1.00
9201;DHT22;4635;48.686;9.008;2023-02-27T06:45:01;-3.90;1.00
9201;DHT22;4635;48.686;9.008;2023-02-27T06:47:35;-3.90;99.90
9201;DHT22;4635;48.686;9.008;2023-02-27T06:50:31;-3.90;99.90
9201;DHT22;4635;48.686;9.008;2023-02-27T06:53:11;-3.90;99.90
9201;DHT22;4635;48.686;9.008;2023-02-27T06:55:47;-3.80;99.90
9201;DHT22;4635;48.686;9.008;2023-02-27T06:58:32;-3.80;99.90
9201;DHT22;4635;48.686;9.008;2023-02-27T07:01:30;-3.80;72.80
9201;DHT22;4635;48.686;9.008;2023-02-27T07:04:22;-3.70;1.00
9201;DHT22;4635;48.686;9.008;2023-02-27T07:07:11;-3.70;7.30
9201;DHT22;4635;48.686;9.008;2023-02-27T07:09:43;-3.60;1.00
9201;DHT22;4635;48.686;9.008;2023-02-27T07:12:33;-3.60;1.00
9201;DHT22;4635;48.686;9.008;2023-02-27T07:15:14;-3.50;1.00
9201;DHT22;4635;48.686;9.008;2023-02-27T07:18:09;-3.40;1.00
9201;DHT22;4635;48.686;9.008;2023-02-27T07:20:57;-2.20;99.90
9201;DHT22;4635;48.686;9.008;2023-02-27T07:23:39;-3.30;1.00
9201;DHT22;4635;48.686;9.008;2023-02-27T07:26:16;-3.20;1.00
9201;DHT22;4635;48.686;9.008;2023-02-27T07:29:06;-3.10;1.00
9201;DHT22;4635;48.686;9.008;2023-02-27T07:32:06;-3.00;99.90
9201;DHT22;4635;48.686;9.008;2023-02-27T07:34:53;-2.90;1.00
9201;DHT22;4635;48.686;9.008;2023-02-27T07:37:46;-2.90;1.00
9201;DHT22;4635;48.686;9.008;2023-02-27T07:43:52;-2.70;99.90
9201;DHT22;4635;48.686;9.008;2023-02-27T07:47:11;-2.70;1.00
9201;DHT22;4635;48.686;9.008;2023-02-27T07:49:50;-2.60;1.00
9201;DHT22;4635;48.686;9.008;2023-02-27T07:52:45;-2.50;1.00
9201;DHT22;4635;48.686;9.008;2023-02-27T07:55:36;-1.80;1.00
9201;DHT22;4635;48.686;9.008;2023-02-27T07:58:26;-1.20;1.00
9201;DHT22;4635;48.686;9.008;2023-02-27T08:08:08;-0.40;33.60
9201;DHT22;4635;48.686;9.008;2023-02-27T08:10:51;-1.20;54.50
9201;DHT22;4635;48.686;9.008;2023-02-27T08:13:39;-1.20;99.90
9201;DHT22;4635;48.686;9.008;2023-02-27T08:16:21;-1.10;99.90
9201;DHT22;4635;48.686;9.008;2023-02-27T08:19:13;-0.40;58.50
9201;DHT22;4635;48.686;9.008;2023-02-27T08:22:34;0.40;1.00
9201;DHT22;4635;48.686;9.008;2023-02-27T11:22:02;7.20;1.00
9201;DHT22;4635;48.686;9.008;2023-02-27T12:11:19;1.00;1.00
9201;DHT22;4635;48.686;9.008;2023-02-27T12:14:16;1.60;1.00
9201;DHT22;4635;48.686;9.008;2023-02-27T12:17:24;1.70;1.00
9201;DHT22;4635;48.686;9.008;2023-02-27T12:27:21;2.10;1.00
9201;DHT22;4635;48.686;9.008;2023-02-27T12:30:41;1.70;1.00
9201;DHT22;4635;48.686;9.008;2023-02-27T12:34:04;1.80;1.00
9201;DHT22;4635;48.686;9.008;2023-02-27T12:37:27;1.90;1.00
9201;DHT22;4635;48.686;9.008;2023-02-27T12:40:37;1.70;1.00
9201;DHT22;4635;48.686;9.008;2023-02-27T13:29:05;1.60;1.00
9201;DHT22;4635;48.686;9.008;2023-02-27T13:36:06;2.80;1.00
9201;DHT22;4635;48.686;9.008;2023-02-27T15:31:38;1.10;1.00
9201;DHT22;4635;48.686;9.008;2023-02-27T15:38:03;1.00;1.00
9201;DHT22;4635;48.686;9.008;2023-02-27T15:41:29;1.20;1.00
9201;DHT22;4635;48.686;9.008;2023-02-27T15:48:00;1.20;1.00
9201;DHT22;4635;48.686;9.008;2023-02-27T15:55:04;1.20;1.00
9201;DHT22;4635;48.686;9.008;2023-02-27T15:58:14;1.00;1.00
9201;DHT22;4635;48.686;9.008;2023-02-27T16:01:14;0.60;1.00
9201;DHT22;4635;48.686;9.008;2023-02-27T16:07:44;0.80;1.00
9201;DHT22;4635;48.686;9.008;2023-02-27T16:10:58;0.80;1.00
9201;DHT22;4635;48.686;9.008;2023-02-27T16:13:49;0.60;1.00
9201;DHT22;4635;48.686;9.008;2023-02-27T16:40:49;0.10;1.00
9201;DHT22;4635;48.686;9.008;2023-02-27T16:43:35;0.30;1.00
9201;DHT22;4635;48.686;9.008;2023-02-27T16:46:37;0.30;1.00
9201;DHT22;4635;48.686;9.008;2023-02-27T16:49:35;0.30;1.00
9201;DHT22;4635;48.686;9.008;2023-02-27T17:05:30;0.10;1.00
9201;DHT22;4635;48.686;9.008;2023-02-27T17:08:15;0.70;1.00
9201;DHT22;4635;48.686;9.008;2023-02-27T17:11:36;0.10;1.00
9201;DHT22;4635;48.686;9.008;2023-02-27T17:14:43;0.00;1.00
9201;DHT22;4635;48.686;9.008;2023-02-27T17:17:37;0.00;1.00
9201;DHT22;4635;48.686;9.008;2023-02-27T17:23:58;0.00;1.00
9201;DHT22;4635;48.686;9.008;2023-02-27T17:26:55;0.10;1.00
9201;DHT22;4635;48.686;9.008;2023-02-27T17:33:11;0.00;1.00
9201;DHT22;4635;48.686;9.008;2023-02-27T17:35:48;0.00;1.00
9201;DHT22;4635;48.686;9.008;2023-02-27T17:38:40;0.00;1.00
9201;DHT22;4635;48.686;9.008;2023-02-27T17:41:36;0.00;1.00
9201;DHT22;4635;48.686;9.008;2023-02-27T17:44:24;0.30;1.00
9201;DHT22;4635;48.686;9.008;2023-02-27T17:47:29;-0.20;1.00
9201;DHT22;4635;48.686;9.008;2023-02-27T17:50:20;-0.20;1.00
9201;DHT22;4635;48.686;9.008;2023-02-27T17:53:31;-0.30;1.00
9201;DHT22;4635;48.686;9.008;2023-02-27T17:56:09;-0.20;1.00
9201;DHT22;4635;48.686;9.008;2023-02-27T17:58:58;-0.30;1.00
9201;DHT22;4635;48.686;9.008;2023-02-27T18:01:31;-0.20;1.00
9201;DHT22;4635;48.686;9.008;2023-02-27T18:04:06;-0.20;1.00
9201;DHT22;4635;48.686;9.008;2023-02-27T18:06:45;-0.30;1.00
9201;DHT22;4635;48.686;9.008;2023-02-27T18:09:19;-0.30;1.00
9201;DHT22;4635;48.686;9.008;2023-02-27T18:11:50;-0.20;1.00
9201;DHT22;4635;48.686;9.008;2023-02-27T18:14:20;-0.30;1.00
9201;DHT22;4635;48.686;9.008;2023-02-27T18:16:54;-0.30;1.00
9201;DHT22;4635;48.686;9.008;2023-02-27T18:19:30;-0.30;1.00
9201;DHT22;4635;48.686;9.008;2023-02-27T18:22:07;-0.30;1.00
9201;DHT22;4635;48.686;9.008;2023-02-27T18:24:51;-0.30;1.00
9201;DHT22;4635;48.686;9.008;2023-02-27T18:27:24;-0.40;1.00
9201;DHT22;4635;48.686;9.008;2023-02-27T18:29:53;-0.40;1.00
9201;DHT22;4635;48.686;9.008;2023-02-27T18:32:41;-0.40;1.00
9201;DHT22;4635;48.686;9.008;2023-02-27T18:35:27;-0.40;1.00
9201;DHT22;4635;48.686;9.008;2023-02-27T18:41:03;-0.40;1.00
9201;DHT22;4635;48.686;9.008;2023-02-27T18:43:34;-0.50;1.00
9201;DHT22;4635;48.686;9.008;2023-02-27T18:46:10;-0.50;1.00
9201;DHT22;4635;48.686;9.008;2023-02-27T18:48:48;-0.50;1.00
9201;DHT22;4635;48.686;9.008;2023-02-27T18:51:18;-0.50;1.00
9201;DHT22;4635;48.686;9.008;2023-02-27T18:53:52;-0.60;1.00
9201;DHT22;4635;48.686;9.008;2023-02-27T18:59:18;-0.60;1.00
9201;DHT22;4635;48.686;9.008;2023-02-27T19:01:48;-0.60;1.00
9201;DHT22;4635;48.686;9.008;2023-02-27T19:04:17;-0.70;1.00
9201;DHT22;4635;48.686;9.008;2023-02-27T19:06:51;-0.60;1.00
9201;DHT22;4635;48.686;9.008;2023-02-27T19:10:16;-0.70;1.00
9201;DHT22;4635;48.686;9.008;2023-02-27T19:15:49;-0.70;1.00
9201;DHT22;4635;48.686;9.008;2023-02-27T19:18:22;-0.70;1.00
9201;DHT22;4635;48.686;9.008;2023-02-27T19:21:04;-0.70;1.00
9201;DHT22;4635;48.686;9.008;2023-02-27T19:23:35;-0.70;1.00
9201;DHT22;4635;48.686;9.008;2023-02-27T19:26:05;-0.70;1.00
9201;DHT22;4635;48.686;9.008;2023-02-27T19:28:43;-0.70;1.00
9201;DHT22;4635;48.686;9.008;2023-02-27T19:31:16;-0.70;1.00
9201;DHT22;4635;48.686;9.008;2023-02-27T19:33:48;-0.80;1.00
9201;DHT22;4635;48.686;9.008;2023-02-27T19:36:25;-0.90;1.00
9201;DHT22;4635;48.686;9.008;2023-02-27T19:38:58;-0.90;1.00
9201;DHT22;4635;48.686;9.008;2023-02-27T19:41:27;-1.00;1.00
9201;DHT22;4635;48.686;9.008;2023-02-27T19:43:56;-1.00;1.00
9201;DHT22;4635;48.686;9.008;2023-02-27T19:46:30;-1.10;1.00
9201;DHT22;4635;48.686;9.008;2023-02-27T19:49:04;-1.10;1.00
9201;DHT22;4635;48.686;9.008;2023-02-27T19:51:33;-1.20;1.00
9201;DHT22;4635;48.686;9.008;2023-02-27T19:54:02;-1.20;1.00
9201;DHT22;4635;48.686;9.008;2023-02-27T19:56:43;-1.20;1.00
9201;DHT22;4635;48.686;9.008;2023-02-27T20:01:29;-1.20;1.00
9201;DHT22;4635;48.686;9.008;2023-02-27T20:02:19;-1.20;1.00
9201;DHT22;4635;48.686;9.008;2023-02-27T20:04:53;-1.30;1.00
9201;DHT22;4635;48.686;9.008;2023-02-27T20:07:28;-1.30;1.00
9201;DHT22;4635;48.686;9.008;2023-02-27T20:09:59;-1.30;1.00
9201;DHT22;4635;48.686;9.008;2023-02-27T20:12:32;-1.30;1.00
9201;DHT22;4635;48.686;9.008;2023-02-27T20:15:01;-1.30;1.00
9201;DHT22;4635;48.686;9.008;2023-02-27T20:20:39;-1.30;1.00
9201;DHT22;4635;48.686;9.008;2023-02-27T20:23:08;-1.30;1.00
9201;DHT22;4635;48.686;9.008;2023-02-27T20:28:52;-1.30;1.00
9201;DHT22;4635;48.686;9.008;2023-02-27T20:31:27;-1.30;1.00
9201;DHT22;4635;48.686;9.008;2023-02-27T20:34:02;-1.30;1.00
9201;DHT22;4635;48.686;9.008;2023-02-27T20:36:41;-1.40;1.00
9201;DHT22;4635;48.686;9.008;2023-02-27T20:40:32;-1.30;1.00
9201;DHT22;4635;48.686;9.008;2023-02-27T20:42:19;-1.30;1.00
9201;DHT22;4635;48.686;9.008;2023-02-27T20:44:51;-1.30;1.00
9201;DHT22;4635;48.686;9.008;2023-02-27T20:47:20;-1.40;1.00
9201;DHT22;4635;48.686;9.008;2023-02-27T20:49:48;-1.40;1.00
9201;DHT22;4635;48.686;9.008;2023-02-27T20:52:19;-1.40;1.00
9201;DHT22;4635;48.686;9.008;2023-02-27T20:54:49;-1.40;1.00
9201;DHT22;4635;48.686;9.008;2023-02-27T20:57:18;-1.50;1.00
9201;DHT22;4635;48.686;9.008;2023-02-27T20:59:50;-1.40;1.00
9201;DHT22;4635;48.686;9.008;2023-02-27T21:02:21;-1.40;1.00
9201;DHT22;4635;48.686;9.008;2023-02-27T21:04:50;-1.40;1.00
9201;DHT22;4635;48.686;9.008;2023-02-27T21:07:22;-1.40;1.00
9201;DHT22;4635;48.686;9.008;2023-02-27T21:09:50;-1.40;1.00
9201;DHT22;4635;48.686;9.008;2023-02-27T21:12:20;-1.40;1.00
9201;DHT22;4635;48.686;9.008;2023-02-27T21:14:49;-1.40;1.00
9201;DHT22;4635;48.686;9.008;2023-02-27T21:17:20;-1.40;1.00
9201;DHT22;4635;48.686;9.008;2023-02-27T21:19:51;-1.50;1.00
9201;DHT22;4635;48.686;9.008;2023-02-27T21:22:24;-1.40;1.00
9201;DHT22;4635;48.686;9.008;2023-02-27T21:24:54;-1.40;1.00
9201;DHT22;4635;48.686;9.008;2023-02-27T21:27:30;-1.50;1.00
9201;DHT22;4635;48.686;9.008;2023-02-27T21:30:02;-1.50;1.00
9201;DHT22;4635;48.686;9.008;2023-02-27T21:32:36;-1.50;1.00
9201;DHT22;4635;48.686;9.008;2023-02-27T21:35:15;-1.50;1.00
9201;DHT22;4635;48.686;9.008;2023-02-27T21:37:49;-1.50;1.00
9201;DHT22;4635;48.686;9.008;2023-02-27T21:40:24;-1.50;1.00
9201;DHT22;4635;48.686;9.008;2023-02-27T21:42:56;-1.50;1.00
9201;DHT22;4635;48.686;9.008;2023-02-27T21:45:31;-1.50;1.00
9201;DHT22;4635;48.686;9.008;2023-02-27T21:48:04;-1.50;1.00
9201;DHT22;4635;48.686;9.008;2023-02-27T21:50:37;-1.50;1.00
9201;DHT22;4635;48.686;9.008;2023-02-27T21:53:10;-1.50;1.00
9201;DHT22;4635;48.686;9.008;2023-02-27T21:55:44;-1.60;1.00
9201;DHT22;4635;48.686;9.008;2023-02-27T21:58:36;-1.50;1.00
9201;DHT22;4635;48.686;9.008;2023-02-27T22:01:14;-1.50;1.00
9201;DHT22;4635;48.686;9.008;2023-02-27T22:03:43;-1.50;1.00
9201;DHT22;4635;48.686;9.008;2023-02-27T22:06:13;-1.60;1.00
9201;DHT22;4635;48.686;9.008;2023-02-27T22:08:44;-1.60;1.00
9201;DHT22;4635;48.686;9.008;2023-02-27T22:11:17;-1.70;1.00
9201;DHT22;4635;48.686;9.008;2023-02-27T22:13:55;-1.70;1.00
9201;DHT22;4635;48.686;9.008;2023-02-27T22:16:27;-1.70;1.00
9201;DHT22;4635;48.686;9.008;2023-02-27T22:18:57;-1.80;1.00
9201;DHT22;4635;48.686;9.008;2023-02-27T22:21:27;-1.80;1.00
9201;DHT22;4635;48.686;9.008;2023-02-27T22:23:59;-1.90;1.00
9201;DHT22;4635;48.686;9.008;2023-02-27T22:26:32;-1.90;1.00
9201;DHT22;4635;48.686;9.008;2023-02-27T22:29:04;-1.90;1.00
9201;DHT22;4635;48.686;9.008;2023-02-27T22:31:35;-1.90;1.00
9201;DHT22;4635;48.686;9.008;2023-02-27T22:34:06;-2.00;1.00
9201;DHT22;4635;48.686;9.008;2023-02-27T22:36:35;-2.00;1.00
9201;DHT22;4635;48.686;9.008;2023-02-27T22:39:09;-2.00;1.00
9201;DHT22;4635;48.686;9.008;2023-02-27T22:41:42;-2.00;1.00
9201;DHT22;4635;48.686;9.008;2023-02-27T22:44:20;-2.10;1.00
9201;DHT22;4635;48.686;9.008;2023-02-27T22:46:49;-2.10;1.00
9201;DHT22;4635;48.686;9.008;2023-02-27T22:49:20;-2.10;1.00
9201;DHT22;4635;48.686;9.008;2023-02-27T22:51:50;-2.10;1.00
9201;DHT22;4635;48.686;9.008;2023-02-27T22:54:21;-2.10;1.00
9201;DHT22;4635;48.686;9.008;2023-02-27T22:56:51;-2.20;1.00
9201;DHT22;4635;48.686;9.008;2023-02-27T22:59:23;-2.20;1.00
9201;DHT22;4635;48.686;9.008;2023-02-27T23:01:52;-2.20;1.00
9201;DHT22;4635;48.686;9.008;2023-02-27T23:04:27;-2.30;1.00
9201;DHT22;4635;48.686;9.008;2023-02-27T23:06:57;-2.20;1.00
9201;DHT22;4635;48.686;9.008;2023-02-27T23:09:27;-2.20;1.00
9201;DHT22;4635;48.686;9.008;2023-02-27T23:11:57;-2.30;1.00
9201;DHT22;4635;48.686;9.008;2023-02-27T23:14:28;-2.30;1.00
9201;DHT22;4635;48.686;9.008;2023-02-27T23:17:00;-2.30;1.00
9201;DHT22;4635;48.686;9.008;2023-02-27T23:19:37;-2.30;1.00
9201;DHT22;4635;48.686;9.008;2023-02-27T23:22:07;-2.40;1.00
9201;DHT22;4635;48.686;9.008;2023-02-27T23:24:39;-2.40;1.00
9201;DHT22;4635;48.686;9.008;2023-02-27T23:27:13;-2.40;1.00
9201;DHT22;4635;48.686;9.008;2023-02-27T23:29:53;-2.40;1.00
9201;DHT22;4635;48.686;9.008;2023-02-27T23:35:13;-2.50;1.00
9201;DHT22;4635;48.686;9.008;2023-02-27T23:38:23;-2.50;1.00
9201;DHT22;4635;48.686;9.008;2023-02-27T23:40:47;-2.50;1.00
9201;DHT22;4635;48.686;9.008;2023-02-27T23:43:16;-2.60;1.00
9201;DHT22;4635;48.686;9.008;2023-02-27T23:45:48;-2.60;1.00
9201;DHT22;4635;48.686;9.008;2023-02-27T23:48:17;-2.50;1.00
9201;DHT22;4635;48.686;9.008;2023-02-27T23:50:52;-2.50;1.00
9201;DHT22;4635;48.686;9.008;2023-02-27T23:53:22;-2.50;1.00
9201;DHT22;4635;48.686;9.008;2023-02-27T23:55:54;-2.60;1.00
9201;DHT22;4635;48.686;9.008;2023-02-27T23:58:23;-2.60;1.00
